Hlavní strana
METAR-TAF:

METAR-TAF

Letiště :

Accra, Ghana

zeměpisná šířka: 05-36N, zeměpisná délka: 000-10W, výška: 68 m

Aktuální stav počasí

Zpráva byla vytvořena před 46 minutami, v 21:00 UTC
Jihozápadní vítr 10 kt
Teplota 27°C
Vlhkost vzduchu 89%
Tlak 1011 hPa
Viditelnost: 8000 m

METAR: DGAA 222100Z 22010KT 8000 NSC 27/25 Q1011 NOSIG

Čas: 21:46 (21:46 UTC)

Předpověď počasí

Zpráva byla vytvořena před 4 hodinami a 46 minutami, v 17:00 UTC
Předpověď platná od 22 v 18 UTC do 23 v 24 UTC
Jihojihozápadní vítr 10 kt
Viditelnost: 8000 m
Změna
od 23 v 02 UTC do 23 v 04 UTC
Západní vítr 5 kt
Změna
od 23 v 06 UTC do 23 v 08 UTC
Viditelnost: 3000 m
Polojasno ve výšce 1000 ft
kouřmo
Od UTC
Jižní vítr 15 kt
Viditelnost: 5000 m
Skoro jasno ve výšce 2000 ft
zákal

TAF: DGAA 221700Z 2218/2324 20010KT 8000 NSC BECMG 2302/2304 27005KT BECMG 2306/2308 3000 BR SCT010 FM 231100 19015KT 5000 HZ FEW020

Stav a předpovědi počasí z více než 4 000 letišť (zprávy METAR a TAF).

Červené a žluté tečky na mapě představují dostupné meteorologické stanice.

Když kurzor umístíte na tečku, zobrazí se název stanice.

Pak kliknutím zobrazíte stav a předpověď počasí.

Chcete-li změnit mapu, kliknutím na zelené tlačítko se znaménkem +mapu přiblížíte, kliknutím na zelené tlačítko se znaménkem – mapu oddálíte a kliknutím na zelené šipky přejdete na sousední mapy.


METAR-TAF: